sensor_id;sensor_type;location;lat;lon;timestamp;temperature;humidity
39219;DHT22;24934;52.752;6.964;2023-04-28T00:00:29;6.40;99.90
39219;DHT22;24934;52.752;6.964;2023-04-28T00:02:54;6.40;99.90
39219;DHT22;24934;52.752;6.964;2023-04-28T00:05:20;6.40;99.90
39219;DHT22;24934;52.752;6.964;2023-04-28T00:07:49;6.40;99.90
39219;DHT22;24934;52.752;6.964;2023-04-28T00:10:15;6.40;99.90
39219;DHT22;24934;52.752;6.964;2023-04-28T00:12:40;6.30;99.90
39219;DHT22;24934;52.752;6.964;2023-04-28T00:15:06;6.30;99.90
39219;DHT22;24934;52.752;6.964;2023-04-28T00:17:35;6.30;99.90
39219;DHT22;24934;52.752;6.964;2023-04-28T00:20:01;6.30;99.90
39219;DHT22;24934;52.752;6.964;2023-04-28T00:22:26;6.30;99.90
39219;DHT22;24934;52.752;6.964;2023-04-28T00:24:52;6.30;99.90
39219;DHT22;24934;52.752;6.964;2023-04-28T00:27:17;6.30;99.90
39219;DHT22;24934;52.752;6.964;2023-04-28T00:29:44;6.30;99.90
39219;DHT22;24934;52.752;6.964;2023-04-28T00:32:10;6.30;99.90
39219;DHT22;24934;52.752;6.964;2023-04-28T00:34:36;6.30;99.90
39219;DHT22;24934;52.752;6.964;2023-04-28T00:37:02;6.20;99.90
39219;DHT22;24934;52.752;6.964;2023-04-28T00:39:28;6.20;99.90
39219;DHT22;24934;52.752;6.964;2023-04-28T00:41:54;6.20;99.90
39219;DHT22;24934;52.752;6.964;2023-04-28T00:44:19;6.20;99.90
39219;DHT22;24934;52.752;6.964;2023-04-28T00:46:46;6.20;99.90
39219;DHT22;24934;52.752;6.964;2023-04-28T00:49:14;6.20;99.90
39219;DHT22;24934;52.752;6.964;2023-04-28T00:51:40;6.10;99.90
39219;DHT22;24934;52.752;6.964;2023-04-28T00:54:05;6.10;99.90
39219;DHT22;24934;52.752;6.964;2023-04-28T00:56:33;6.00;99.90
39219;DHT22;24934;52.752;6.964;2023-04-28T00:58:58;6.00;99.90
39219;DHT22;24934;52.752;6.964;2023-04-28T01:01:24;6.00;99.90
39219;DHT22;24934;52.752;6.964;2023-04-28T01:03:50;5.90;99.90
39219;DHT22;24934;52.752;6.964;2023-04-28T01:06:17;5.90;99.90
39219;DHT22;24934;52.752;6.964;2023-04-28T01:08:47;5.80;99.90
39219;DHT22;24934;52.752;6.964;2023-04-28T01:11:13;5.80;99.90
39219;DHT22;24934;52.752;6.964;2023-04-28T01:13:39;5.80;99.90
39219;DHT22;24934;52.752;6.964;2023-04-28T01:16:06;5.70;99.90
39219;DHT22;24934;52.752;6.964;2023-04-28T01:18:32;5.70;99.90
39219;DHT22;24934;52.752;6.964;2023-04-28T01:20:57;5.70;99.90
39219;DHT22;24934;52.752;6.964;2023-04-28T01:23:23;5.70;99.90
39219;DHT22;24934;52.752;6.964;2023-04-28T01:25:49;5.70;99.90
39219;DHT22;24934;52.752;6.964;2023-04-28T01:28:17;5.70;99.90
39219;DHT22;24934;52.752;6.964;2023-04-28T01:30:43;5.70;99.90
39219;DHT22;24934;52.752;6.964;2023-04-28T01:33:08;5.70;99.90
39219;DHT22;24934;52.752;6.964;2023-04-28T01:35:34;5.70;99.90
39219;DHT22;24934;52.752;6.964;2023-04-28T01:37:59;5.80;99.90
39219;DHT22;24934;52.752;6.964;2023-04-28T01:40:25;5.80;99.90
39219;DHT22;24934;52.752;6.964;2023-04-28T01:42:51;5.80;99.90
39219;DHT22;24934;52.752;6.964;2023-04-28T01:45:16;5.90;99.90
39219;DHT22;24934;52.752;6.964;2023-04-28T01:47:42;5.90;99.90
39219;DHT22;24934;52.752;6.964;2023-04-28T01:50:08;5.90;99.90
39219;DHT22;24934;52.752;6.964;2023-04-28T01:52:33;5.90;99.90
39219;DHT22;24934;52.752;6.964;2023-04-28T01:54:59;6.00;99.90
39219;DHT22;24934;52.752;6.964;2023-04-28T01:57:24;6.00;99.90
39219;DHT22;24934;52.752;6.964;2023-04-28T01:59:50;6.00;99.90
39219;DHT22;24934;52.752;6.964;2023-04-28T02:02:17;5.90;99.90
39219;DHT22;24934;52.752;6.964;2023-04-28T02:04:42;6.00;99.90
39219;DHT22;24934;52.752;6.964;2023-04-28T02:07:08;5.90;99.90
39219;DHT22;24934;52.752;6.964;2023-04-28T02:09:34;6.00;99.90
39219;DHT22;24934;52.752;6.964;2023-04-28T02:11:59;5.90;99.90
39219;DHT22;24934;52.752;6.964;2023-04-28T02:14:29;6.00;99.90
39219;DHT22;24934;52.752;6.964;2023-04-28T02:16:58;6.00;99.90
39219;DHT22;24934;52.752;6.964;2023-04-28T02:19:24;6.00;99.90
39219;DHT22;24934;52.752;6.964;2023-04-28T02:21:50;6.00;99.90
39219;DHT22;24934;52.752;6.964;2023-04-28T02:24:15;6.00;99.90
39219;DHT22;24934;52.752;6.964;2023-04-28T02:26:44;6.00;99.90
39219;DHT22;24934;52.752;6.964;2023-04-28T02:29:09;6.00;99.90
39219;DHT22;24934;52.752;6.964;2023-04-28T02:31:35;5.90;99.90
39219;DHT22;24934;52.752;6.964;2023-04-28T02:34:00;5.90;99.90
39219;DHT22;24934;52.752;6.964;2023-04-28T02:36:26;5.90;99.90
39219;DHT22;24934;52.752;6.964;2023-04-28T02:38:52;5.80;99.90
39219;DHT22;24934;52.752;6.964;2023-04-28T02:41:17;5.80;99.90
39219;DHT22;24934;52.752;6.964;2023-04-28T02:43:43;5.80;99.90
39219;DHT22;24934;52.752;6.964;2023-04-28T02:46:09;5.80;99.90
39219;DHT22;24934;52.752;6.964;2023-04-28T02:48:35;5.80;99.90
39219;DHT22;24934;52.752;6.964;2023-04-28T02:51:01;5.70;99.90
39219;DHT22;24934;52.752;6.964;2023-04-28T02:53:27;5.70;99.90
39219;DHT22;24934;52.752;6.964;2023-04-28T02:55:53;5.70;99.90
39219;DHT22;24934;52.752;6.964;2023-04-28T02:58:18;5.70;99.90
39219;DHT22;24934;52.752;6.964;2023-04-28T03:00:44;5.70;99.90
39219;DHT22;24934;52.752;6.964;2023-04-28T03:03:10;5.70;99.90
39219;DHT22;24934;52.752;6.964;2023-04-28T03:05:36;5.80;99.90
39219;DHT22;24934;52.752;6.964;2023-04-28T03:08:01;5.80;99.90
39219;DHT22;24934;52.752;6.964;2023-04-28T03:10:27;5.80;99.90
39219;DHT22;24934;52.752;6.964;2023-04-28T03:12:53;5.90;99.90
39219;DHT22;24934;52.752;6.964;2023-04-28T03:15:18;5.90;99.90
39219;DHT22;24934;52.752;6.964;2023-04-28T03:17:44;5.90;99.90
39219;DHT22;24934;52.752;6.964;2023-04-28T03:20:10;5.90;99.90
39219;DHT22;24934;52.752;6.964;2023-04-28T03:22:36;5.90;99.90
39219;DHT22;24934;52.752;6.964;2023-04-28T03:25:01;6.00;99.90
39219;DHT22;24934;52.752;6.964;2023-04-28T03:27:27;5.90;99.90
39219;DHT22;24934;52.752;6.964;2023-04-28T03:29:53;6.00;99.90
39219;DHT22;24934;52.752;6.964;2023-04-28T03:32:19;5.90;99.90
39219;DHT22;24934;52.752;6.964;2023-04-28T03:34:44;5.90;99.90
39219;DHT22;24934;52.752;6.964;2023-04-28T03:37:10;5.90;99.90
39219;DHT22;24934;52.752;6.964;2023-04-28T03:39:36;5.90;99.90
39219;DHT22;24934;52.752;6.964;2023-04-28T03:42:02;5.90;99.90
39219;DHT22;24934;52.752;6.964;2023-04-28T03:44:27;5.90;99.90
39219;DHT22;24934;52.752;6.964;2023-04-28T03:46:53;5.90;99.90
39219;DHT22;24934;52.752;6.964;2023-04-28T03:49:18;5.90;99.90
39219;DHT22;24934;52.752;6.964;2023-04-28T03:51:44;5.90;99.90
39219;DHT22;24934;52.752;6.964;2023-04-28T03:54:10;5.80;99.90
39219;DHT22;24934;52.752;6.964;2023-04-28T03:56:35;5.90;99.90
39219;DHT22;24934;52.752;6.964;2023-04-28T03:59:01;5.90;99.90
39219;DHT22;24934;52.752;6.964;2023-04-28T04:01:26;5.90;99.90
39219;DHT22;24934;52.752;6.964;2023-04-28T04:03:52;5.90;99.90
39219;DHT22;24934;52.752;6.964;2023-04-28T04:06:18;5.90;99.90
39219;DHT22;24934;52.752;6.964;2023-04-28T04:08:44;5.90;99.90
39219;DHT22;24934;52.752;6.964;2023-04-28T04:11:10;5.90;99.90
39219;DHT22;24934;52.752;6.964;2023-04-28T04:13:35;5.90;99.90
39219;DHT22;24934;52.752;6.964;2023-04-28T04:16:01;5.90;99.90
39219;DHT22;24934;52.752;6.964;2023-04-28T04:18:27;5.90;99.90
39219;DHT22;24934;52.752;6.964;2023-04-28T04:20:52;5.90;99.90
39219;DHT22;24934;52.752;6.964;2023-04-28T04:23:20;5.80;99.90
39219;DHT22;24934;52.752;6.964;2023-04-28T04:25:46;5.80;99.90
39219;DHT22;24934;52.752;6.964;2023-04-28T04:28:12;5.80;99.90
39219;DHT22;24934;52.752;6.964;2023-04-28T04:30:38;5.80;99.90
39219;DHT22;24934;52.752;6.964;2023-04-28T04:33:03;5.80;99.90
39219;DHT22;24934;52.752;6.964;2023-04-28T04:35:29;5.90;99.90
39219;DHT22;24934;52.752;6.964;2023-04-28T04:37:55;5.90;99.90
39219;DHT22;24934;52.752;6.964;2023-04-28T04:40:20;5.90;99.90
39219;DHT22;24934;52.752;6.964;2023-04-28T04:42:46;6.00;99.90
39219;DHT22;24934;52.752;6.964;2023-04-28T04:45:12;6.00;99.90
39219;DHT22;24934;52.752;6.964;2023-04-28T04:47:37;6.00;99.90
39219;DHT22;24934;52.752;6.964;2023-04-28T04:50:04;6.10;99.90
39219;DHT22;24934;52.752;6.964;2023-04-28T04:52:30;6.10;99.90
39219;DHT22;24934;52.752;6.964;2023-04-28T04:54:57;6.20;99.90
39219;DHT22;24934;52.752;6.964;2023-04-28T04:57:22;6.20;99.90
39219;DHT22;24934;52.752;6.964;2023-04-28T04:59:48;6.20;99.90
39219;DHT22;24934;52.752;6.964;2023-04-28T05:02:13;6.20;99.90
39219;DHT22;24934;52.752;6.964;2023-04-28T05:04:39;6.20;99.90
39219;DHT22;24934;52.752;6.964;2023-04-28T05:07:05;6.30;99.90
39219;DHT22;24934;52.752;6.964;2023-04-28T05:09:31;6.30;99.90
39219;DHT22;24934;52.752;6.964;2023-04-28T05:11:57;6.30;99.90
39219;DHT22;24934;52.752;6.964;2023-04-28T05:14:23;6.40;99.90
39219;DHT22;24934;52.752;6.964;2023-04-28T05:16:48;6.40;99.90
39219;DHT22;24934;52.752;6.964;2023-04-28T05:19:14;6.40;99.90
39219;DHT22;24934;52.752;6.964;2023-04-28T05:21:40;6.40;99.90
39219;DHT22;24934;52.752;6.964;2023-04-28T05:24:06;6.50;99.90
39219;DHT22;24934;52.752;6.964;2023-04-28T05:26:31;6.50;99.90
39219;DHT22;24934;52.752;6.964;2023-04-28T05:28:57;6.50;99.90
39219;DHT22;24934;52.752;6.964;2023-04-28T05:31:22;6.50;99.90
39219;DHT22;24934;52.752;6.964;2023-04-28T05:33:48;6.50;99.90
39219;DHT22;24934;52.752;6.964;2023-04-28T05:36:14;6.50;99.90
39219;DHT22;24934;52.752;6.964;2023-04-28T05:38:42;6.60;99.90
39219;DHT22;24934;52.752;6.964;2023-04-28T05:41:07;6.70;99.90
39219;DHT22;24934;52.752;6.964;2023-04-28T05:43:33;6.70;99.90
39219;DHT22;24934;52.752;6.964;2023-04-28T05:45:59;6.80;99.90
39219;DHT22;24934;52.752;6.964;2023-04-28T05:48:25;6.80;99.90
39219;DHT22;24934;52.752;6.964;2023-04-28T05:50:51;6.80;99.90
39219;DHT22;24934;52.752;6.964;2023-04-28T05:53:17;6.90;99.90
39219;DHT22;24934;52.752;6.964;2023-04-28T05:55:43;6.90;99.90
39219;DHT22;24934;52.752;6.964;2023-04-28T05:58:08;6.90;99.90
39219;DHT22;24934;52.752;6.964;2023-04-28T06:00:34;6.70;99.90
39219;DHT22;24934;52.752;6.964;2023-04-28T06:03:00;6.70;99.90
39219;DHT22;24934;52.752;6.964;2023-04-28T06:05:26;6.80;99.90
39219;DHT22;24934;52.752;6.964;2023-04-28T06:07:51;6.80;99.90
39219;DHT22;24934;52.752;6.964;2023-04-28T06:10:18;6.90;99.90
39219;DHT22;24934;52.752;6.964;2023-04-28T06:12:44;6.90;99.90
39219;DHT22;24934;52.752;6.964;2023-04-28T06:15:10;7.00;99.90
39219;DHT22;24934;52.752;6.964;2023-04-28T06:17:37;7.00;99.90
39219;DHT22;24934;52.752;6.964;2023-04-28T06:20:04;7.10;99.90
39219;DHT22;24934;52.752;6.964;2023-04-28T06:22:30;7.10;99.90
39219;DHT22;24934;52.752;6.964;2023-04-28T06:24:55;7.20;99.90
39219;DHT22;24934;52.752;6.964;2023-04-28T06:27:21;7.20;99.90
39219;DHT22;24934;52.752;6.964;2023-04-28T06:29:46;7.20;99.90
39219;DHT22;24934;52.752;6.964;2023-04-28T06:32:12;7.30;99.90
39219;DHT22;24934;52.752;6.964;2023-04-28T06:34:38;7.40;99.90
39219;DHT22;24934;52.752;6.964;2023-04-28T06:37:03;7.50;99.90
39219;DHT22;24934;52.752;6.964;2023-04-28T06:39:29;7.50;99.90
39219;DHT22;24934;52.752;6.964;2023-04-28T06:41:55;7.60;99.90
39219;DHT22;24934;52.752;6.964;2023-04-28T06:44:22;7.60;99.90
39219;DHT22;24934;52.752;6.964;2023-04-28T06:46:47;7.70;99.90
39219;DHT22;24934;52.752;6.964;2023-04-28T06:49:13;7.60;99.90
39219;DHT22;24934;52.752;6.964;2023-04-28T06:51:39;7.60;99.90
39219;DHT22;24934;52.752;6.964;2023-04-28T06:54:04;7.60;99.90
39219;DHT22;24934;52.752;6.964;2023-04-28T06:56:31;7.60;99.90
39219;DHT22;24934;52.752;6.964;2023-04-28T06:58:56;7.60;99.90
39219;DHT22;24934;52.752;6.964;2023-04-28T07:01:23;7.70;99.90
39219;DHT22;24934;52.752;6.964;2023-04-28T07:03:49;7.80;99.90
39219;DHT22;24934;52.752;6.964;2023-04-28T07:06:15;7.90;99.90
39219;DHT22;24934;52.752;6.964;2023-04-28T07:08:41;7.90;99.90
39219;DHT22;24934;52.752;6.964;2023-04-28T07:11:06;7.90;99.90
39219;DHT22;24934;52.752;6.964;2023-04-28T07:13:32;8.00;99.90
39219;DHT22;24934;52.752;6.964;2023-04-28T07:15:58;8.00;99.90
39219;DHT22;24934;52.752;6.964;2023-04-28T07:18:23;8.00;99.90
39219;DHT22;24934;52.752;6.964;2023-04-28T07:20:50;8.10;99.90
39219;DHT22;24934;52.752;6.964;2023-04-28T07:23:15;8.10;99.90
39219;DHT22;24934;52.752;6.964;2023-04-28T07:25:41;8.10;99.90
39219;DHT22;24934;52.752;6.964;2023-04-28T07:28:07;8.30;99.90
39219;DHT22;24934;52.752;6.964;2023-04-28T07:30:34;8.30;99.90
39219;DHT22;24934;52.752;6.964;2023-04-28T07:33:00;8.30;99.90
39219;DHT22;24934;52.752;6.964;2023-04-28T07:35:26;8.40;99.90
39219;DHT22;24934;52.752;6.964;2023-04-28T07:37:52;8.50;99.90
39219;DHT22;24934;52.752;6.964;2023-04-28T07:40:18;8.70;99.90
39219;DHT22;24934;52.752;6.964;2023-04-28T07:42:44;8.70;99.90
39219;DHT22;24934;52.752;6.964;2023-04-28T07:45:10;8.80;99.90
39219;DHT22;24934;52.752;6.964;2023-04-28T07:47:36;8.80;99.90
39219;DHT22;24934;52.752;6.964;2023-04-28T07:50:03;8.80;99.90
39219;DHT22;24934;52.752;6.964;2023-04-28T07:52:31;8.90;99.90
39219;DHT22;24934;52.752;6.964;2023-04-28T07:54:58;9.10;99.90
39219;DHT22;24934;52.752;6.964;2023-04-28T07:57:23;9.30;99.90
39219;DHT22;24934;52.752;6.964;2023-04-28T07:59:49;9.40;99.90
39219;DHT22;24934;52.752;6.964;2023-04-28T08:02:15;9.40;99.90
39219;DHT22;24934;52.752;6.964;2023-04-28T08:04:41;9.40;99.90
39219;DHT22;24934;52.752;6.964;2023-04-28T08:07:07;9.50;99.90
39219;DHT22;24934;52.752;6.964;2023-04-28T08:09:33;9.70;99.90
39219;DHT22;24934;52.752;6.964;2023-04-28T08:11:59;10.00;99.90
39219;DHT22;24934;52.752;6.964;2023-04-28T08:14:26;10.80;99.90
39219;DHT22;24934;52.752;6.964;2023-04-28T08:16:51;11.60;99.90
39219;DHT22;24934;52.752;6.964;2023-04-28T08:19:17;11.80;99.90
39219;DHT22;24934;52.752;6.964;2023-04-28T08:21:43;11.70;99.90
39219;DHT22;24934;52.752;6.964;2023-04-28T08:24:09;11.40;99.90
39219;DHT22;24934;52.752;6.964;2023-04-28T08:26:36;11.20;99.90
39219;DHT22;24934;52.752;6.964;2023-04-28T08:29:03;11.30;99.90
39219;DHT22;24934;52.752;6.964;2023-04-28T08:31:28;11.20;99.90
39219;DHT22;24934;52.752;6.964;2023-04-28T08:33:54;11.10;99.90
39219;DHT22;24934;52.752;6.964;2023-04-28T08:36:19;11.10;99.90
39219;DHT22;24934;52.752;6.964;2023-04-28T08:38:45;11.20;99.90
39219;DHT22;24934;52.752;6.964;2023-04-28T08:41:15;11.10;99.90
39219;DHT22;24934;52.752;6.964;2023-04-28T08:43:41;11.30;99.90
39219;DHT22;24934;52.752;6.964;2023-04-28T08:46:09;11.30;99.90
39219;DHT22;24934;52.752;6.964;2023-04-28T08:48:42;11.20;99.90
39219;DHT22;24934;52.752;6.964;2023-04-28T08:51:14;11.20;99.90
39219;DHT22;24934;52.752;6.964;2023-04-28T08:53:43;11.30;99.90
39219;DHT22;24934;52.752;6.964;2023-04-28T08:56:09;11.30;99.90
39219;DHT22;24934;52.752;6.964;2023-04-28T08:58:38;11.40;99.90
39219;DHT22;24934;52.752;6.964;2023-04-28T09:01:04;11.50;99.90
39219;DHT22;24934;52.752;6.964;2023-04-28T09:03:31;11.50;99.90
39219;DHT22;24934;52.752;6.964;2023-04-28T09:06:00;11.60;99.90
39219;DHT22;24934;52.752;6.964;2023-04-28T09:08:26;11.70;99.90
39219;DHT22;24934;52.752;6.964;2023-04-28T09:11:09;11.70;99.90
39219;DHT22;24934;52.752;6.964;2023-04-28T09:13:36;11.60;99.90
39219;DHT22;24934;52.752;6.964;2023-04-28T09:16:02;11.60;99.90
39219;DHT22;24934;52.752;6.964;2023-04-28T09:18:29;11.60;99.90
39219;DHT22;24934;52.752;6.964;2023-04-28T09:21:08;11.70;99.90
39219;DHT22;24934;52.752;6.964;2023-04-28T09:23:45;11.70;99.90
39219;DHT22;24934;52.752;6.964;2023-04-28T09:26:11;11.90;99.90
39219;DHT22;24934;52.752;6.964;2023-04-28T09:28:37;12.00;99.90
39219;DHT22;24934;52.752;6.964;2023-04-28T09:31:03;12.10;99.90
39219;DHT22;24934;52.752;6.964;2023-04-28T09:33:29;11.90;99.90
39219;DHT22;24934;52.752;6.964;2023-04-28T09:35:54;11.80;99.90
39219;DHT22;24934;52.752;6.964;2023-04-28T09:38:21;12.00;99.90
39219;DHT22;24934;52.752;6.964;2023-04-28T09:41:00;12.10;99.90
39219;DHT22;24934;52.752;6.964;2023-04-28T09:43:32;12.30;99.90
39219;DHT22;24934;52.752;6.964;2023-04-28T09:45:59;12.20;99.90
39219;DHT22;24934;52.752;6.964;2023-04-28T09:48:30;12.50;99.90
39219;DHT22;24934;52.752;6.964;2023-04-28T09:50:57;12.90;99.90
39219;DHT22;24934;52.752;6.964;2023-04-28T09:53:24;13.20;99.90
39219;DHT22;24934;52.752;6.964;2023-04-28T09:55:54;13.40;99.90
39219;DHT22;24934;52.752;6.964;2023-04-28T09:58:22;13.20;99.90
39219;DHT22;24934;52.752;6.964;2023-04-28T10:00:54;13.00;99.90
39219;DHT22;24934;52.752;6.964;2023-04-28T10:03:22;12.90;99.90
39219;DHT22;24934;52.752;6.964;2023-04-28T10:05:48;12.80;99.90
39219;DHT22;24934;52.752;6.964;2023-04-28T10:08:15;12.60;99.90
39219;DHT22;24934;52.752;6.964;2023-04-28T10:10:42;12.40;99.90
39219;DHT22;24934;52.752;6.964;2023-04-28T10:13:08;12.40;99.90
39219;DHT22;24934;52.752;6.964;2023-04-28T10:15:35;12.60;99.90
39219;DHT22;24934;52.752;6.964;2023-04-28T10:18:03;12.50;99.90
39219;DHT22;24934;52.752;6.964;2023-04-28T10:20:29;12.90;99.90
39219;DHT22;24934;52.752;6.964;2023-04-28T10:23:49;13.70;99.90
39219;DHT22;24934;52.752;6.964;2023-04-28T10:25:48;14.60;99.90
39219;DHT22;24934;52.752;6.964;2023-04-28T10:28:17;15.30;99.90
39219;DHT22;24934;52.752;6.964;2023-04-28T10:31:19;15.20;99.90
39219;DHT22;24934;52.752;6.964;2023-04-28T10:33:46;15.30;99.90
39219;DHT22;24934;52.752;6.964;2023-04-28T10:36:50;16.10;99.90
39219;DHT22;24934;52.752;6.964;2023-04-28T10:39:19;16.30;99.90
39219;DHT22;24934;52.752;6.964;2023-04-28T10:41:45;16.50;99.90
39219;DHT22;24934;52.752;6.964;2023-04-28T10:47:02;16.70;99.90
39219;DHT22;24934;52.752;6.964;2023-04-28T10:55:31;15.90;99.90
39219;DHT22;24934;52.752;6.964;2023-04-28T11:00:47;15.10;99.90
39219;DHT22;24934;52.752;6.964;2023-04-28T11:06:46;16.00;99.90
39219;DHT22;24934;52.752;6.964;2023-04-28T11:14:29;16.80;99.90
39219;DHT22;24934;52.752;6.964;2023-04-28T11:17:13;18.10;99.90
39219;DHT22;24934;52.752;6.964;2023-04-28T11:19:43;18.70;99.90
39219;DHT22;24934;52.752;6.964;2023-04-28T11:22:17;18.90;99.90
39219;DHT22;24934;52.752;6.964;2023-04-28T11:25:03;18.80;99.90
39219;DHT22;24934;52.752;6.964;2023-04-28T11:27:31;17.70;99.90
39219;DHT22;24934;52.752;6.964;2023-04-28T11:29:58;17.70;99.90
39219;DHT22;24934;52.752;6.964;2023-04-28T11:32:32;18.10;99.90
39219;DHT22;24934;52.752;6.964;2023-04-28T11:34:58;18.20;99.90
39219;DHT22;24934;52.752;6.964;2023-04-28T11:37:24;18.10;99.90
39219;DHT22;24934;52.752;6.964;2023-04-28T11:39:50;17.70;99.90
39219;DHT22;24934;52.752;6.964;2023-04-28T11:42:15;17.50;99.90
39219;DHT22;24934;52.752;6.964;2023-04-28T11:44:48;17.40;99.90
39219;DHT22;24934;52.752;6.964;2023-04-28T11:47:16;17.00;99.90
39219;DHT22;24934;52.752;6.964;2023-04-28T11:49:52;16.90;99.90
39219;DHT22;24934;52.752;6.964;2023-04-28T11:52:18;16.60;99.90
39219;DHT22;24934;52.752;6.964;2023-04-28T11:54:44;16.20;99.90
39219;DHT22;24934;52.752;6.964;2023-04-28T11:57:18;15.90;99.90
39219;DHT22;24934;52.752;6.964;2023-04-28T11:59:46;16.00;99.90
39219;DHT22;24934;52.752;6.964;2023-04-28T12:02:12;15.60;99.90
39219;DHT22;24934;52.752;6.964;2023-04-28T12:04:38;15.80;99.90
39219;DHT22;24934;52.752;6.964;2023-04-28T12:09:32;15.70;99.90
39219;DHT22;24934;52.752;6.964;2023-04-28T12:12:00;15.60;99.90
39219;DHT22;24934;52.752;6.964;2023-04-28T12:14:28;15.60;99.90
39219;DHT22;24934;52.752;6.964;2023-04-28T12:16:54;15.70;99.90
39219;DHT22;24934;52.752;6.964;2023-04-28T12:19:21;15.90;99.90
39219;DHT22;24934;52.752;6.964;2023-04-28T12:22:04;15.70;99.90
39219;DHT22;24934;52.752;6.964;2023-04-28T12:24:31;15.60;99.90
39219;DHT22;24934;52.752;6.964;2023-04-28T12:27:16;15.60;99.90
39219;DHT22;24934;52.752;6.964;2023-04-28T12:29:43;15.60;99.90
39219;DHT22;24934;52.752;6.964;2023-04-28T12:32:13;15.50;99.90
39219;DHT22;24934;52.752;6.964;2023-04-28T12:34:41;15.20;99.90
39219;DHT22;24934;52.752;6.964;2023-04-28T12:37:08;15.20;99.90
39219;DHT22;24934;52.752;6.964;2023-04-28T12:39:35;15.30;99.90
39219;DHT22;24934;52.752;6.964;2023-04-28T12:42:02;15.20;99.90
39219;DHT22;24934;52.752;6.964;2023-04-28T12:44:37;15.20;99.90
39219;DHT22;24934;52.752;6.964;2023-04-28T12:47:06;15.10;99.90
39219;DHT22;24934;52.752;6.964;2023-04-28T12:49:36;15.10;99.90
39219;DHT22;24934;52.752;6.964;2023-04-28T12:52:03;15.00;99.90
39219;DHT22;24934;52.752;6.964;2023-04-28T12:54:29;14.90;99.90
39219;DHT22;24934;52.752;6.964;2023-04-28T12:56:55;14.70;99.90
39219;DHT22;24934;52.752;6.964;2023-04-28T12:59:21;14.60;99.90
39219;DHT22;24934;52.752;6.964;2023-04-28T13:01:48;14.30;99.90
39219;DHT22;24934;52.752;6.964;2023-04-28T13:04:13;14.30;99.90
39219;DHT22;24934;52.752;6.964;2023-04-28T13:06:39;14.30;99.90
39219;DHT22;24934;52.752;6.964;2023-04-28T13:09:10;14.20;99.90
39219;DHT22;24934;52.752;6.964;2023-04-28T13:11:37;14.10;99.90
39219;DHT22;24934;52.752;6.964;2023-04-28T13:14:02;13.90;99.90
39219;DHT22;24934;52.752;6.964;2023-04-28T13:16:28;13.70;99.90
39219;DHT22;24934;52.752;6.964;2023-04-28T13:18:55;13.60;99.90
39219;DHT22;24934;52.752;6.964;2023-04-28T13:21:22;13.60;99.90
39219;DHT22;24934;52.752;6.964;2023-04-28T13:23:49;13.60;99.90
39219;DHT22;24934;52.752;6.964;2023-04-28T13:26:14;13.50;99.90
39219;DHT22;24934;52.752;6.964;2023-04-28T13:28:40;13.50;99.90
39219;DHT22;24934;52.752;6.964;2023-04-28T13:31:06;13.40;99.90
39219;DHT22;24934;52.752;6.964;2023-04-28T13:33:31;13.30;99.90
39219;DHT22;24934;52.752;6.964;2023-04-28T13:35:57;13.40;99.90
39219;DHT22;24934;52.752;6.964;2023-04-28T13:38:23;13.40;99.90
39219;DHT22;24934;52.752;6.964;2023-04-28T13:40:50;13.50;99.90
39219;DHT22;24934;52.752;6.964;2023-04-28T13:43:16;13.60;99.90
39219;DHT22;24934;52.752;6.964;2023-04-28T13:45:41;13.60;99.90
39219;DHT22;24934;52.752;6.964;2023-04-28T13:48:07;13.60;99.90
39219;DHT22;24934;52.752;6.964;2023-04-28T13:50:33;13.70;99.90
39219;DHT22;24934;52.752;6.964;2023-04-28T13:52:58;13.70;99.90
39219;DHT22;24934;52.752;6.964;2023-04-28T13:55:24;13.70;99.90
39219;DHT22;24934;52.752;6.964;2023-04-28T13:57:55;13.80;99.90
39219;DHT22;24934;52.752;6.964;2023-04-28T14:00:21;13.80;99.90
39219;DHT22;24934;52.752;6.964;2023-04-28T14:02:51;14.00;99.90
39219;DHT22;24934;52.752;6.964;2023-04-28T14:05:17;14.00;99.90
39219;DHT22;24934;52.752;6.964;2023-04-28T14:07:43;14.00;99.90
39219;DHT22;24934;52.752;6.964;2023-04-28T14:10:10;14.00;99.90
39219;DHT22;24934;52.752;6.964;2023-04-28T14:12:36;14.00;99.90
39219;DHT22;24934;52.752;6.964;2023-04-28T14:15:06;14.00;99.90
39219;DHT22;24934;52.752;6.964;2023-04-28T14:17:31;13.90;99.90
39219;DHT22;24934;52.752;6.964;2023-04-28T14:19:59;14.00;99.90
39219;DHT22;24934;52.752;6.964;2023-04-28T14:22:26;13.90;99.90
39219;DHT22;24934;52.752;6.964;2023-04-28T14:24:51;14.00;99.90
39219;DHT22;24934;52.752;6.964;2023-04-28T14:27:18;14.00;99.90
39219;DHT22;24934;52.752;6.964;2023-04-28T14:29:43;14.00;99.90
39219;DHT22;24934;52.752;6.964;2023-04-28T14:32:13;14.10;99.90
39219;DHT22;24934;52.752;6.964;2023-04-28T14:34:39;14.00;99.90
39219;DHT22;24934;52.752;6.964;2023-04-28T14:37:05;14.00;99.90
39219;DHT22;24934;52.752;6.964;2023-04-28T14:39:30;13.90;99.90
39219;DHT22;24934;52.752;6.964;2023-04-28T14:41:56;13.90;99.90
39219;DHT22;24934;52.752;6.964;2023-04-28T14:44:22;13.90;99.90
39219;DHT22;24934;52.752;6.964;2023-04-28T14:46:47;13.90;99.90
39219;DHT22;24934;52.752;6.964;2023-04-28T14:49:13;13.90;99.90
39219;DHT22;24934;52.752;6.964;2023-04-28T14:51:38;13.80;99.90
39219;DHT22;24934;52.752;6.964;2023-04-28T14:54:04;13.70;99.90
39219;DHT22;24934;52.752;6.964;2023-04-28T14:56:30;13.70;99.90
39219;DHT22;24934;52.752;6.964;2023-04-28T14:58:59;13.70;99.90
39219;DHT22;24934;52.752;6.964;2023-04-28T15:01:25;13.70;99.90
39219;DHT22;24934;52.752;6.964;2023-04-28T15:03:53;13.60;99.90
39219;DHT22;24934;52.752;6.964;2023-04-28T15:06:19;13.70;99.90
39219;DHT22;24934;52.752;6.964;2023-04-28T15:08:45;13.70;99.90
39219;DHT22;24934;52.752;6.964;2023-04-28T15:11:10;13.60;99.90
39219;DHT22;24934;52.752;6.964;2023-04-28T15:13:36;13.60;99.90
39219;DHT22;24934;52.752;6.964;2023-04-28T15:16:02;13.60;99.90
39219;DHT22;24934;52.752;6.964;2023-04-28T15:18:28;13.60;99.90
39219;DHT22;24934;52.752;6.964;2023-04-28T15:20:54;13.80;99.90
39219;DHT22;24934;52.752;6.964;2023-04-28T15:23:19;13.80;99.90
39219;DHT22;24934;52.752;6.964;2023-04-28T15:25:45;13.70;99.90
39219;DHT22;24934;52.752;6.964;2023-04-28T15:28:11;13.70;99.90
39219;DHT22;24934;52.752;6.964;2023-04-28T15:30:37;13.60;99.90
39219;DHT22;24934;52.752;6.964;2023-04-28T15:33:03;13.70;99.90
39219;DHT22;24934;52.752;6.964;2023-04-28T15:35:28;13.60;99.90
39219;DHT22;24934;52.752;6.964;2023-04-28T15:37:54;13.60;99.90
39219;DHT22;24934;52.752;6.964;2023-04-28T15:40:20;13.50;99.90
39219;DHT22;24934;52.752;6.964;2023-04-28T15:42:46;13.50;99.90
39219;DHT22;24934;52.752;6.964;2023-04-28T15:45:19;13.60;99.90
39219;DHT22;24934;52.752;6.964;2023-04-28T15:47:48;13.60;99.90
39219;DHT22;24934;52.752;6.964;2023-04-28T15:50:15;13.60;99.90
39219;DHT22;24934;52.752;6.964;2023-04-28T15:52:42;13.60;99.90
39219;DHT22;24934;52.752;6.964;2023-04-28T15:55:15;13.60;99.90
39219;DHT22;24934;52.752;6.964;2023-04-28T15:57:41;13.60;99.90
39219;DHT22;24934;52.752;6.964;2023-04-28T16:00:08;13.50;99.90